Česky Dansk Deutsch English Español Suomi Français Magyar Italiano Nederlands norsk Polski Português svenska Türkçe

 

Het Weer

Karlstad (Zweden)

21:50, 21 augustus 2016 (GMT)

NWNNE
WE
SWSSE
Home            
Karlstad Karlstad Flygplats Orebro Private Skovde Flygplats Satenas Trollhattan Private Rygge Oslo / Gardermoen Oslo / Fornebu Borlange Oseberg Linkoping / Malmen Torp Linkoping / Saab Siljan / Mora Vasteras / Hasslo Norrkoping Jonkoping Flygplats Goteborg / Save Goteborg / Landvetter Skien-Geiteryggen Stockholm/Skavsta Notodden

Om een weerknop op uw website of weblog te plaatsen, copieer onderstaande code en plak die in uw pagina. In het eerste vakje staat HTML-code, in het tweede vakje UBB-code.


Add to Google

Details

Visibility: 2900 m, 2.9 km, 9514 ft, 1.8 miles
Clouds:Durchbrochene Bewölkung at 9100 ft, 2774 m
Temperature:12°C, 54°F
Dew-point:12°C, 54°F
Atmospheric pressure:1015 hPa, 761.3 mmHg, 29.97 inHg, 1.002 atm
Relative humidity:100.0 %
METAR:ESOK 212150Z AUTO 00000KT 2900 BKN091 12/12 Q1015

Snelkoppelingen

Actuele weersinformatie van de hele wereld. Voeg locaties toe met het plus (+) symbool. Deze snelkoppelingen kunnen worden toegevoegd aan Google.

Lid van de Technetium groep

website free tracking
StatCounter NetStat W3C Validator

14-07-2020 02:14:55
astro.technetium.be money.technetium.be phote.technetium.be tafeltennistafel.technetium.be www.ligfiets.net